createdAt,value
2023-05-24T00:00:20.875Z,0.00
2023-05-24T00:01:20.854Z,0.00
2023-05-24T00:02:20.902Z,0.00
2023-05-24T00:03:20.967Z,0.00
2023-05-24T00:04:20.902Z,0.00
2023-05-24T00:05:20.814Z,0.00
2023-05-24T00:06:20.818Z,0.00
2023-05-24T00:07:20.801Z,0.00
2023-05-24T00:08:20.796Z,0.00
2023-05-24T00:09:20.764Z,0.00
2023-05-24T00:10:20.772Z,0.00
2023-05-24T00:11:20.746Z,0.00
2023-05-24T00:12:20.748Z,0.00
2023-05-24T00:13:20.727Z,0.00
2023-05-24T00:14:20.716Z,0.00
2023-05-24T00:15:20.698Z,0.00
2023-05-24T00:16:20.745Z,0.00
2023-05-24T00:17:20.839Z,0.00
2023-05-24T00:18:20.673Z,0.00
2023-05-24T00:19:20.962Z,0.00
2023-05-24T00:20:21.001Z,0.00
2023-05-24T00:21:20.628Z,0.00
2023-05-24T00:22:20.662Z,0.00
2023-05-24T00:23:20.617Z,0.00
2023-05-24T00:24:20.604Z,0.00
2023-05-24T00:25:20.600Z,0.00
2023-05-24T00:26:20.615Z,0.00
2023-05-24T00:27:20.573Z,0.00
2023-05-24T00:28:20.557Z,0.00
2023-05-24T00:29:20.540Z,0.00
2023-05-24T00:30:20.538Z,0.00
2023-05-24T00:31:20.610Z,0.00
2023-05-24T00:32:20.544Z,0.00
2023-05-24T00:33:20.498Z,0.00
2023-05-24T00:34:20.489Z,0.00
2023-05-24T00:35:20.486Z,0.00
2023-05-24T00:36:20.477Z,0.00
2023-05-24T00:37:20.452Z,0.00
2023-05-24T00:38:20.450Z,0.00
2023-05-24T00:39:20.432Z,0.00
2023-05-24T00:40:20.445Z,0.00
2023-05-24T00:41:20.402Z,0.00
2023-05-24T00:42:20.400Z,0.00
2023-05-24T00:43:20.402Z,0.00
2023-05-24T00:44:20.393Z,0.00
2023-05-24T00:45:20.388Z,0.00
2023-05-24T00:46:20.413Z,0.00
2023-05-24T00:47:20.353Z,0.00
2023-05-24T00:48:20.335Z,0.00
2023-05-24T00:49:20.338Z,0.00
2023-05-24T00:50:20.322Z,0.00
2023-05-24T00:51:20.296Z,0.00
2023-05-24T00:52:20.294Z,0.00
2023-05-24T00:53:20.274Z,0.00
2023-05-24T00:54:20.282Z,0.00
2023-05-24T00:55:20.258Z,0.00
2023-05-24T00:56:20.244Z,0.00
2023-05-24T00:57:20.229Z,0.00
2023-05-24T00:58:20.222Z,0.00
2023-05-24T00:59:20.218Z,0.00
2023-05-24T01:00:20.203Z,0.00
2023-05-24T01:01:20.194Z,0.00
2023-05-24T01:02:20.198Z,0.00
2023-05-24T01:03:20.209Z,0.00
2023-05-24T01:04:20.168Z,0.00
2023-05-24T01:05:20.157Z,0.00
2023-05-24T01:06:20.144Z,0.00
2023-05-24T01:07:20.147Z,0.00
2023-05-24T01:08:20.125Z,0.00
2023-05-24T01:09:20.094Z,0.00
2023-05-24T01:10:20.095Z,0.00
2023-05-24T01:11:20.089Z,0.00
2023-05-24T01:12:20.073Z,0.00
2023-05-24T01:13:20.069Z,0.00
2023-05-24T01:14:20.045Z,0.00
2023-05-24T01:15:20.036Z,0.00
2023-05-24T01:16:20.078Z,0.00
2023-05-24T01:17:20.029Z,0.00
2023-05-24T01:18:20.014Z,0.00
2023-05-24T01:19:19.992Z,0.00
2023-05-24T01:20:20.006Z,0.00
2023-05-24T01:21:19.981Z,0.00
2023-05-24T01:22:19.966Z,0.00
2023-05-24T01:23:19.964Z,0.00
2023-05-24T01:24:19.931Z,0.00
2023-05-24T01:25:19.924Z,0.00
2023-05-24T01:26:19.914Z,0.00
2023-05-24T01:27:19.914Z,0.00
2023-05-24T01:28:19.887Z,0.00
2023-05-24T01:29:19.882Z,0.00
2023-05-24T01:30:19.882Z,0.00
2023-05-24T01:31:19.885Z,0.00
2023-05-24T01:32:19.976Z,0.00
2023-05-24T01:33:19.855Z,0.00
2023-05-24T01:34:19.827Z,0.00
2023-05-24T01:35:19.826Z,0.00
2023-05-24T01:36:19.814Z,0.00
2023-05-24T01:37:19.814Z,0.00
2023-05-24T01:38:19.782Z,0.00
2023-05-24T01:39:19.771Z,0.00
2023-05-24T01:40:19.787Z,0.00
2023-05-24T01:41:19.765Z,0.00
2023-05-24T01:42:19.751Z,0.00
2023-05-24T01:43:19.735Z,0.00
2023-05-24T01:44:19.712Z,0.00
2023-05-24T01:45:19.709Z,0.00
2023-05-24T01:46:19.718Z,0.00
2023-05-24T01:47:19.693Z,0.00
2023-05-24T01:48:19.668Z,0.00
2023-05-24T01:49:19.657Z,0.00
2023-05-24T01:50:19.656Z,0.00
2023-05-24T01:51:19.647Z,0.00
2023-05-24T01:52:19.665Z,0.00
2023-05-24T01:53:19.643Z,0.00
2023-05-24T01:54:19.597Z,0.00
2023-05-24T01:55:19.604Z,0.00
2023-05-24T01:56:19.601Z,0.00
2023-05-24T01:57:19.570Z,0.00
2023-05-24T01:58:19.552Z,0.00
2023-05-24T01:59:19.551Z,0.00
2023-05-24T02:00:19.548Z,0.00
2023-05-24T02:01:19.595Z,0.00
2023-05-24T02:02:19.541Z,0.00
2023-05-24T02:03:19.524Z,0.00
2023-05-24T02:04:19.495Z,0.00
2023-05-24T02:05:19.491Z,0.00
2023-05-24T02:06:19.465Z,0.00
2023-05-24T02:07:19.459Z,0.00
2023-05-24T02:08:19.446Z,0.00
2023-05-24T02:09:19.450Z,0.00
2023-05-24T02:10:19.415Z,0.00
2023-05-24T02:11:19.454Z,0.00
2023-05-24T02:12:19.398Z,0.00
2023-05-24T02:13:19.394Z,0.00
2023-05-24T02:14:19.387Z,0.00
2023-05-24T02:15:19.371Z,0.00
2023-05-24T02:16:19.382Z,0.00
2023-05-24T02:17:19.355Z,0.00
2023-05-24T02:18:19.370Z,0.00
2023-05-24T02:19:19.421Z,0.00
2023-05-24T02:20:19.349Z,0.00
2023-05-24T02:21:19.306Z,0.00
2023-05-24T02:22:19.292Z,0.00
2023-05-24T02:23:19.317Z,0.00
2023-05-24T02:24:19.279Z,0.00
2023-05-24T02:25:19.293Z,0.00
2023-05-24T02:26:19.243Z,0.00
2023-05-24T02:27:19.238Z,0.00
2023-05-24T02:28:19.233Z,0.00
2023-05-24T02:29:19.219Z,0.00
2023-05-24T02:30:19.204Z,0.00
2023-05-24T02:31:19.253Z,0.00
2023-05-24T02:32:19.193Z,0.00
2023-05-24T02:33:19.198Z,0.00
2023-05-24T02:34:19.156Z,0.00
2023-05-24T02:35:19.160Z,0.00
2023-05-24T02:36:19.136Z,0.00
2023-05-24T02:37:19.141Z,0.00
2023-05-24T02:38:19.112Z,0.00
2023-05-24T02:39:19.118Z,0.00
2023-05-24T02:40:19.098Z,0.00
2023-05-24T02:41:19.097Z,0.00
2023-05-24T02:42:19.086Z,0.00
2023-05-24T02:43:19.070Z,0.00
2023-05-24T02:44:19.049Z,0.00
2023-05-24T02:45:19.042Z,0.00
2023-05-24T02:46:19.067Z,0.00
2023-05-24T02:47:19.114Z,0.00
2023-05-24T02:48:19.008Z,0.00
2023-05-24T02:49:18.996Z,0.00
2023-05-24T02:50:18.992Z,4.00
2023-05-24T02:51:18.995Z,4.00
2023-05-24T02:52:18.975Z,0.00
2023-05-24T02:53:18.953Z,0.00
2023-05-24T02:54:18.941Z,4.00
2023-05-24T02:55:18.935Z,4.00
2023-05-24T02:56:18.924Z,4.00
2023-05-24T02:57:18.939Z,4.00
2023-05-24T02:58:18.892Z,8.00
2023-05-24T02:59:18.883Z,4.00
2023-05-24T03:00:18.868Z,4.00
2023-05-24T03:01:18.913Z,8.00
2023-05-24T03:02:18.848Z,8.00
2023-05-24T03:03:18.902Z,8.00
2023-05-24T03:04:18.828Z,12.00
2023-05-24T03:05:18.819Z,12.00
2023-05-24T03:06:18.812Z,16.00
2023-05-24T03:07:18.800Z,16.00
2023-05-24T03:08:18.782Z,16.00
2023-05-24T03:09:18.777Z,16.00
2023-05-24T03:10:18.755Z,20.00
2023-05-24T03:11:18.771Z,20.00
2023-05-24T03:12:18.737Z,24.00
2023-05-24T03:13:18.728Z,28.00
2023-05-24T03:14:18.718Z,28.00
2023-05-24T03:15:18.722Z,32.00
2023-05-24T03:16:18.710Z,36.00
2023-05-24T03:17:18.689Z,40.00
2023-05-24T03:18:18.670Z,44.00
2023-05-24T03:19:18.662Z,44.00
2023-05-24T03:20:18.669Z,52.00
2023-05-24T03:21:18.753Z,56.00
2023-05-24T03:22:18.633Z,60.00
2023-05-24T03:23:18.618Z,64.00
2023-05-24T03:24:18.618Z,68.00
2023-05-24T03:25:18.612Z,76.00
2023-05-24T03:26:18.586Z,80.00
2023-05-24T03:27:18.577Z,84.00
2023-05-24T03:28:18.571Z,92.00
2023-05-24T03:29:18.568Z,96.00
2023-05-24T03:30:18.566Z,104.00
2023-05-24T03:31:18.551Z,108.00
2023-05-24T03:32:18.516Z,116.00
2023-05-24T03:33:18.515Z,124.00
2023-05-24T03:34:18.509Z,132.00
2023-05-24T03:35:18.523Z,140.00
2023-05-24T03:36:18.468Z,148.00
2023-05-24T03:37:18.471Z,156.00
2023-05-24T03:38:18.455Z,164.00
2023-05-24T03:39:18.463Z,172.00
2023-05-24T03:40:18.434Z,184.00
2023-05-24T03:41:18.432Z,192.00
2023-05-24T03:42:18.414Z,200.00
2023-05-24T03:43:18.416Z,212.00
2023-05-24T03:44:18.403Z,224.00
2023-05-24T03:45:27.048Z,236.00
2023-05-24T03:46:18.414Z,240.00
2023-05-24T03:47:18.358Z,252.00
2023-05-24T03:48:18.350Z,260.00
2023-05-24T03:49:18.343Z,268.00
2023-05-24T03:50:18.318Z,272.00
2023-05-24T03:51:18.322Z,276.00
2023-05-24T03:52:18.315Z,280.00
2023-05-24T03:53:18.702Z,268.00
2023-05-24T03:54:18.297Z,284.00
2023-05-24T03:55:18.260Z,280.00
2023-05-24T03:56:18.334Z,268.00
2023-05-24T03:57:18.237Z,260.00
2023-05-24T03:58:18.241Z,272.00
2023-05-24T03:59:18.216Z,296.00
2023-05-24T04:00:18.208Z,276.00
2023-05-24T04:01:32.073Z,280.00
2023-05-24T04:02:18.223Z,276.00
2023-05-24T04:03:18.283Z,276.00
2023-05-24T04:04:18.253Z,252.00
2023-05-24T04:05:18.161Z,264.00
2023-05-24T04:06:18.145Z,276.00
2023-05-24T04:07:18.139Z,300.00
2023-05-24T04:08:18.131Z,340.00
2023-05-24T04:09:18.107Z,320.00
2023-05-24T04:10:18.093Z,296.00
2023-05-24T04:11:18.085Z,272.00
2023-05-24T04:12:18.089Z,256.00
2023-05-24T04:13:18.059Z,240.00
2023-05-24T04:14:18.046Z,228.00
2023-05-24T04:15:18.057Z,292.00
2023-05-24T04:16:18.035Z,384.00
2023-05-24T04:17:18.272Z,416.00
2023-05-24T04:18:18.125Z,396.00
2023-05-24T04:19:17.998Z,368.00
2023-05-24T04:20:18.069Z,416.00
2023-05-24T04:21:17.987Z,468.00
2023-05-24T04:22:17.970Z,448.00
2023-05-24T04:23:17.963Z,440.00
2023-05-24T04:24:17.930Z,388.00
2023-05-24T04:25:18.017Z,384.00
2023-05-24T04:26:17.958Z,448.00
2023-05-24T04:27:17.916Z,596.00
2023-05-24T04:28:17.900Z,688.00
2023-05-24T04:29:17.891Z,640.00
2023-05-24T04:30:17.880Z,704.00
2023-05-24T04:31:17.933Z,704.00
2023-05-24T04:32:17.970Z,676.00
2023-05-24T04:33:17.849Z,744.00
2023-05-24T04:34:17.832Z,868.00
2023-05-24T04:35:17.866Z,948.00
2023-05-24T04:36:17.831Z,988.00
2023-05-24T04:37:17.809Z,1044.00
2023-05-24T04:38:18.673Z,1088.00
2023-05-24T04:39:17.780Z,1120.00
2023-05-24T04:40:17.776Z,1092.00
2023-05-24T04:41:17.798Z,1016.00
2023-05-24T04:42:17.743Z,952.00
2023-05-24T04:43:17.735Z,904.00
2023-05-24T04:44:17.722Z,856.00
2023-05-24T04:45:17.741Z,784.00
2023-05-24T04:46:17.747Z,700.00
2023-05-24T04:47:17.739Z,604.00
2023-05-24T04:48:17.674Z,520.00
2023-05-24T04:49:17.678Z,456.00
2023-05-24T04:50:17.661Z,420.00
2023-05-24T04:51:17.646Z,420.00
2023-05-24T04:52:17.627Z,428.00
2023-05-24T04:53:17.623Z,432.00
2023-05-24T04:54:17.616Z,420.00
2023-05-24T04:55:17.607Z,408.00
2023-05-24T04:56:17.592Z,388.00
2023-05-24T04:57:17.619Z,376.00
2023-05-24T04:58:17.566Z,376.00
2023-05-24T04:59:17.567Z,412.00
2023-05-24T05:00:17.540Z,480.00
2023-05-24T05:01:17.549Z,540.00
2023-05-24T05:02:17.533Z,580.00
2023-05-24T05:03:17.602Z,632.00
2023-05-24T05:04:17.508Z,676.00
2023-05-24T05:05:17.500Z,732.00
2023-05-24T05:06:17.485Z,784.00
2023-05-24T05:07:17.482Z,824.00
2023-05-24T05:08:17.458Z,848.00
2023-05-24T05:09:17.445Z,840.00
2023-05-24T05:10:17.482Z,808.00
2023-05-24T05:11:17.481Z,784.00
2023-05-24T05:12:17.475Z,788.00
2023-05-24T05:13:17.525Z,800.00
2023-05-24T05:14:17.384Z,824.00
2023-05-24T05:15:17.392Z,820.00
2023-05-24T05:16:17.363Z,808.00
2023-05-24T05:17:17.362Z,784.00
2023-05-24T05:18:17.374Z,776.00
2023-05-24T05:19:17.343Z,808.00
2023-05-24T05:20:17.381Z,872.00
2023-05-24T05:21:17.309Z,952.00
2023-05-24T05:22:17.373Z,1048.00
2023-05-24T05:23:17.290Z,1216.00
2023-05-24T05:24:17.299Z,1388.00
2023-05-24T05:25:17.262Z,1556.00
2023-05-24T05:26:17.251Z,1652.00
2023-05-24T05:27:17.253Z,1736.00
2023-05-24T05:28:17.230Z,1784.00
2023-05-24T05:29:17.214Z,1824.00
2023-05-24T05:30:17.204Z,1816.00
2023-05-24T05:31:17.206Z,1860.00
2023-05-24T05:32:17.340Z,1912.00
2023-05-24T05:33:17.226Z,1960.00
2023-05-24T05:34:17.186Z,2060.00
2023-05-24T05:35:17.162Z,2200.00
2023-05-24T05:36:17.158Z,2068.00
2023-05-24T05:37:17.147Z,1972.00
2023-05-24T05:38:17.115Z,1904.00
2023-05-24T05:39:17.108Z,1872.00
2023-05-24T05:40:17.098Z,1928.00
2023-05-24T05:41:17.113Z,1996.00
2023-05-24T05:42:17.066Z,2060.00
2023-05-24T05:43:17.064Z,2084.00
2023-05-24T05:44:17.050Z,2212.00
2023-05-24T05:45:17.049Z,2088.00
2023-05-24T05:46:17.132Z,2124.00
2023-05-24T05:47:17.023Z,2196.00
2023-05-24T05:48:17.010Z,2260.00
2023-05-24T05:49:17.001Z,2348.00
2023-05-24T05:50:16.991Z,2512.00
2023-05-24T05:51:16.977Z,2752.00
2023-05-24T05:52:16.965Z,2988.00
2023-05-24T05:53:16.956Z,3028.00
2023-05-24T05:54:16.935Z,2992.00
2023-05-24T05:55:16.936Z,2852.00
2023-05-24T05:56:16.917Z,2784.00
2023-05-24T05:57:16.913Z,2780.00
2023-05-24T05:58:16.894Z,2544.00
2023-05-24T05:59:16.926Z,2208.00
2023-05-24T06:00:16.880Z,2020.00
2023-05-24T06:01:16.863Z,1908.00
2023-05-24T06:02:16.881Z,2048.00
2023-05-24T06:03:17.039Z,2412.00
2023-05-24T06:04:16.890Z,2752.00
2023-05-24T06:05:16.830Z,2684.00
2023-05-24T06:06:16.800Z,2612.00
2023-05-24T06:07:16.817Z,2360.00
2023-05-24T06:08:16.779Z,2088.00
2023-05-24T06:09:16.783Z,2088.00
2023-05-24T06:10:16.761Z,2392.00
2023-05-24T06:11:16.772Z,2692.00
2023-05-24T06:12:16.739Z,2944.00
2023-05-24T06:13:16.779Z,2472.00
2023-05-24T06:14:16.732Z,2384.00
2023-05-24T06:15:16.724Z,2364.00
2023-05-24T06:16:16.728Z,2552.00
2023-05-24T06:17:16.684Z,2576.00
2023-05-24T06:18:16.676Z,2484.00
2023-05-24T06:19:16.732Z,2632.00
2023-05-24T06:20:16.674Z,2556.00
2023-05-24T06:21:16.636Z,2716.00
2023-05-24T06:22:16.620Z,2772.00
2023-05-24T06:23:16.627Z,2648.00
2023-05-24T06:24:16.605Z,2596.00
2023-05-24T06:25:16.599Z,2528.00
2023-05-24T06:26:16.583Z,2404.00
2023-05-24T06:27:16.584Z,2288.00
2023-05-24T06:28:16.565Z,2192.00
2023-05-24T06:29:16.557Z,2132.00
2023-05-24T06:30:16.588Z,2152.00
2023-05-24T06:31:16.575Z,2212.00
2023-05-24T06:32:16.518Z,2304.00
2023-05-24T06:33:16.536Z,2332.00
2023-05-24T06:34:16.502Z,2368.00
2023-05-24T06:35:16.536Z,2520.00
2023-05-24T06:36:16.469Z,2612.00
2023-05-24T06:37:16.472Z,2632.00
2023-05-24T06:38:16.452Z,2708.00
2023-05-24T06:39:16.465Z,2872.00
2023-05-24T06:40:16.425Z,3004.00
2023-05-24T06:41:16.418Z,3132.00
2023-05-24T06:42:16.413Z,3180.00
2023-05-24T06:43:16.394Z,3384.00
2023-05-24T06:44:16.413Z,3608.00
2023-05-24T06:45:16.371Z,3560.00
2023-05-24T06:46:16.482Z,3788.00
2023-05-24T06:47:16.562Z,4004.00
2023-05-24T06:48:16.435Z,4204.00
2023-05-24T06:49:16.348Z,4136.00
2023-05-24T06:50:16.314Z,3692.00
2023-05-24T06:51:16.321Z,3376.00
2023-05-24T06:52:16.309Z,3216.00
2023-05-24T06:53:16.287Z,3032.00
2023-05-24T06:54:16.285Z,3044.00
2023-05-24T06:55:16.274Z,2892.00
2023-05-24T06:56:16.253Z,2792.00
2023-05-24T06:57:16.241Z,2460.00
2023-05-24T06:58:16.233Z,2364.00
2023-05-24T06:59:16.236Z,2532.00
2023-05-24T07:00:16.231Z,2816.00
2023-05-24T07:01:16.277Z,2536.00
2023-05-24T07:02:16.181Z,2000.00
2023-05-24T07:03:16.174Z,2052.00
2023-05-24T07:04:16.187Z,2376.00
2023-05-24T07:05:16.164Z,2596.00
2023-05-24T07:06:16.196Z,2444.00
2023-05-24T07:07:16.126Z,2192.00
2023-05-24T07:08:16.118Z,2232.00
2023-05-24T07:09:16.103Z,2340.00
2023-05-24T07:10:16.132Z,2244.00
2023-05-24T07:11:16.138Z,2140.00
2023-05-24T07:12:16.064Z,2664.00
2023-05-24T07:13:16.053Z,3300.00
2023-05-24T07:14:16.058Z,3604.00
2023-05-24T07:15:16.038Z,3776.00
2023-05-24T07:16:16.089Z,3892.00
2023-05-24T07:17:16.127Z,3808.00
2023-05-24T07:18:16.002Z,3684.00
2023-05-24T07:19:15.988Z,3660.00
2023-05-24T07:20:16.060Z,3400.00
2023-05-24T07:21:15.967Z,3140.00
2023-05-24T07:22:15.964Z,3140.00
2023-05-24T07:23:15.944Z,3348.00
2023-05-24T07:24:16.373Z,3120.00
2023-05-24T07:25:15.934Z,3372.00
2023-05-24T07:26:15.922Z,3556.00
2023-05-24T07:27:15.904Z,3436.00
2023-05-24T07:28:15.903Z,3272.00
2023-05-24T07:29:15.895Z,2984.00
2023-05-24T07:30:30.618Z,2908.00
2023-05-24T07:31:15.855Z,2736.00
2023-05-24T07:32:15.939Z,2388.00
2023-05-24T07:33:15.868Z,2260.00
2023-05-24T07:34:15.834Z,2336.00
2023-05-24T07:35:15.808Z,2340.00
2023-05-24T07:36:15.800Z,2076.00
2023-05-24T07:37:15.873Z,1988.00
2023-05-24T07:38:15.794Z,1864.00
2023-05-24T07:39:15.774Z,1756.00
2023-05-24T07:40:15.772Z,1736.00
2023-05-24T07:41:15.739Z,1756.00
2023-05-24T07:42:15.739Z,1804.00
2023-05-24T07:43:15.727Z,2084.00
2023-05-24T07:44:15.717Z,2284.00
2023-05-24T07:45:15.721Z,2144.00
2023-05-24T07:46:15.707Z,1996.00
2023-05-24T07:47:15.673Z,1884.00
2023-05-24T07:48:15.762Z,1712.00
2023-05-24T07:49:15.654Z,1380.00
2023-05-24T07:50:15.646Z,1308.00
2023-05-24T07:51:15.636Z,1440.00
2023-05-24T07:52:15.646Z,1436.00
2023-05-24T07:53:15.620Z,1696.00
2023-05-24T07:54:15.613Z,2220.00
2023-05-24T07:55:15.593Z,2460.00
2023-05-24T07:56:15.579Z,2264.00
2023-05-24T07:57:15.569Z,1980.00
2023-05-24T07:58:15.571Z,1808.00
2023-05-24T07:59:15.553Z,1648.00
2023-05-24T08:00:15.534Z,1516.00
2023-05-24T08:01:15.518Z,1420.00
2023-05-24T08:02:15.533Z,1300.00
2023-05-24T08:03:15.558Z,1220.00
2023-05-24T08:04:15.488Z,1380.00
2023-05-24T08:05:15.499Z,1752.00
2023-05-24T08:06:15.472Z,1864.00
2023-05-24T08:07:15.516Z,1908.00
2023-05-24T08:08:15.463Z,1664.00
2023-05-24T08:09:15.440Z,1540.00
2023-05-24T08:10:15.425Z,1624.00
2023-05-24T08:11:15.411Z,1904.00
2023-05-24T08:12:17.085Z,2084.00
2023-05-24T08:13:15.394Z,2336.00
2023-05-24T08:14:15.380Z,2764.00
2023-05-24T08:15:15.364Z,3212.00
2023-05-24T08:16:15.393Z,3472.00
2023-05-24T08:17:15.360Z,3668.00
2023-05-24T08:18:15.361Z,3820.00
2023-05-24T08:19:15.401Z,3844.00
2023-05-24T08:20:15.337Z,3660.00
2023-05-24T08:21:15.389Z,3452.00
2023-05-24T08:22:15.280Z,3192.00
2023-05-24T08:23:15.274Z,3076.00
2023-05-24T08:24:15.256Z,3080.00
2023-05-24T08:25:15.262Z,2940.00
2023-05-24T08:26:15.261Z,2664.00
2023-05-24T08:27:15.233Z,2304.00
2023-05-24T08:28:15.233Z,2080.00
2023-05-24T08:29:15.207Z,1956.00
2023-05-24T08:30:15.207Z,2076.00
2023-05-24T08:31:15.230Z,2352.00
2023-05-24T08:32:15.210Z,2588.00
2023-05-24T08:33:15.210Z,2700.00
2023-05-24T08:34:15.148Z,2576.00
2023-05-24T08:35:20.375Z,2368.00
2023-05-24T08:36:15.128Z,2196.00
2023-05-24T08:37:16.291Z,2152.00
2023-05-24T08:38:15.108Z,2104.00
2023-05-24T08:39:15.095Z,1996.00
2023-05-24T08:40:15.116Z,1964.00
2023-05-24T08:41:15.076Z,2236.00
2023-05-24T08:42:15.064Z,2660.00
2023-05-24T08:43:15.048Z,3156.00
2023-05-24T08:44:15.036Z,3512.00
2023-05-24T08:45:15.044Z,3576.00
2023-05-24T08:46:15.085Z,3504.00
2023-05-24T08:47:15.009Z,3660.00
2023-05-24T08:48:15.093Z,3760.00
2023-05-24T08:49:15.013Z,3972.00
2023-05-24T08:50:14.987Z,4740.00
2023-05-24T08:51:14.969Z,5152.00
2023-05-24T08:52:15.123Z,4660.00
2023-05-24T08:53:15.119Z,3688.00
2023-05-24T08:54:14.942Z,3116.00
2023-05-24T08:55:14.952Z,2552.00
2023-05-24T08:56:14.906Z,2068.00
2023-05-24T08:57:14.902Z,1736.00
2023-05-24T08:58:14.901Z,1380.00
2023-05-24T08:59:14.893Z,1104.00
2023-05-24T09:00:14.862Z,956.00
2023-05-24T09:01:14.939Z,876.00
2023-05-24T09:02:14.971Z,796.00
2023-05-24T09:03:14.925Z,744.00
2023-05-24T09:04:14.886Z,720.00
2023-05-24T09:05:14.811Z,700.00
2023-05-24T09:06:14.820Z,672.00
2023-05-24T09:07:14.804Z,648.00
2023-05-24T09:08:14.792Z,636.00
2023-05-24T09:09:14.773Z,664.00
2023-05-24T09:10:14.770Z,764.00
2023-05-24T09:11:14.744Z,964.00
2023-05-24T09:12:19.109Z,1228.00
2023-05-24T09:13:14.737Z,1468.00
2023-05-24T09:14:14.706Z,1684.00
2023-05-24T09:15:14.707Z,1896.00
2023-05-24T09:16:14.707Z,2116.00
2023-05-24T09:17:14.683Z,2384.00
2023-05-24T09:18:14.759Z,2700.00
2023-05-24T09:19:14.679Z,3056.00
2023-05-24T09:20:14.711Z,3428.00
2023-05-24T09:21:14.630Z,3844.00
2023-05-24T09:22:14.620Z,4212.00
2023-05-24T09:23:14.619Z,4376.00
2023-05-24T09:24:14.595Z,4372.00
2023-05-24T09:25:14.601Z,4452.00
2023-05-24T09:26:14.591Z,4760.00
2023-05-24T09:27:14.577Z,4924.00
2023-05-24T09:28:14.564Z,4856.00
2023-05-24T09:29:14.544Z,4628.00
2023-05-24T09:30:14.543Z,4392.00
2023-05-24T09:31:14.596Z,4160.00
2023-05-24T09:32:14.533Z,4172.00
2023-05-24T09:33:14.515Z,4416.00
2023-05-24T09:34:14.484Z,4128.00
2023-05-24T09:35:14.484Z,3792.00
2023-05-24T09:36:14.472Z,3668.00
2023-05-24T09:37:14.517Z,3676.00
2023-05-24T09:38:14.438Z,3868.00
2023-05-24T09:39:14.509Z,4012.00
2023-05-24T09:40:14.412Z,4124.00
2023-05-24T09:41:14.414Z,4104.00
2023-05-24T09:42:14.395Z,3936.00
2023-05-24T09:43:14.402Z,3692.00
2023-05-24T09:44:14.367Z,3356.00
2023-05-24T09:45:14.388Z,3148.00
2023-05-24T09:46:14.352Z,2916.00
2023-05-24T09:47:14.466Z,2760.00
2023-05-24T09:48:14.339Z,2644.00
2023-05-24T09:49:14.320Z,2580.00
2023-05-24T09:50:14.302Z,2616.00
2023-05-24T09:51:14.348Z,2708.00
2023-05-24T09:52:14.288Z,2792.00
2023-05-24T09:53:14.293Z,2896.00
2023-05-24T09:54:14.257Z,2984.00
2023-05-24T09:55:14.253Z,3024.00
2023-05-24T09:56:14.247Z,2916.00
2023-05-24T09:57:14.222Z,2636.00
2023-05-24T09:58:14.314Z,2392.00
2023-05-24T09:59:14.215Z,2348.00
2023-05-24T10:00:14.289Z,2388.00
2023-05-24T10:01:14.292Z,2444.00
2023-05-24T10:02:14.163Z,2604.00
2023-05-24T10:03:14.271Z,2732.00
2023-05-24T10:04:14.266Z,2752.00
2023-05-24T10:05:14.152Z,2704.00
2023-05-24T10:06:14.121Z,2500.00
2023-05-24T10:07:14.126Z,2388.00
2023-05-24T10:08:14.127Z,2392.00
2023-05-24T10:09:14.207Z,2416.00
2023-05-24T10:10:14.098Z,2324.00
2023-05-24T10:11:14.113Z,2184.00
2023-05-24T10:12:14.067Z,2004.00
2023-05-24T10:13:14.084Z,1848.00
2023-05-24T10:14:14.058Z,1800.00
2023-05-24T10:15:14.043Z,1872.00
2023-05-24T10:16:14.055Z,2100.00
2023-05-24T10:17:14.135Z,2464.00
2023-05-24T10:18:14.450Z,2904.00
2023-05-24T10:19:13.987Z,3396.00
2023-05-24T10:20:14.003Z,3892.00
2023-05-24T10:21:13.991Z,4252.00
2023-05-24T10:22:14.010Z,4424.00
2023-05-24T10:23:13.927Z,4660.00
2023-05-24T10:24:14.079Z,4936.00
2023-05-24T10:25:13.922Z,5156.00
2023-05-24T10:26:13.907Z,5432.00
2023-05-24T10:27:13.916Z,5708.00
2023-05-24T10:28:13.887Z,5780.00
2023-05-24T10:29:13.893Z,5892.00
2023-05-24T10:30:14.243Z,5808.00
2023-05-24T10:31:13.886Z,5784.00
2023-05-24T10:32:13.836Z,5492.00
2023-05-24T10:33:13.833Z,5220.00
2023-05-24T10:34:13.820Z,4968.00
2023-05-24T10:35:13.794Z,4596.00
2023-05-24T10:36:13.792Z,4312.00
2023-05-24T10:37:13.770Z,4060.00
2023-05-24T10:38:13.772Z,3844.00
2023-05-24T10:39:13.764Z,3880.00
2023-05-24T10:40:13.763Z,4076.00
2023-05-24T10:41:13.740Z,4148.00
2023-05-24T10:42:13.743Z,4028.00
2023-05-24T10:43:13.721Z,3720.00
2023-05-24T10:44:13.716Z,3476.00
2023-05-24T10:45:13.676Z,3672.00
2023-05-24T10:46:13.822Z,3852.00
2023-05-24T10:47:13.676Z,4024.00
2023-05-24T10:48:13.963Z,3988.00
2023-05-24T10:49:13.637Z,3832.00
2023-05-24T10:50:13.643Z,3524.00
2023-05-24T10:51:13.624Z,3140.00
2023-05-24T10:52:13.616Z,2752.00
2023-05-24T10:53:13.614Z,2388.00
2023-05-24T10:54:13.596Z,2052.00
2023-05-24T10:55:13.586Z,1740.00
2023-05-24T10:56:13.558Z,1492.00
2023-05-24T10:57:13.557Z,1340.00
2023-05-24T10:58:13.552Z,1280.00
2023-05-24T10:59:13.525Z,1272.00
2023-05-24T11:00:15.778Z,1308.00
2023-05-24T11:01:13.544Z,1384.00
2023-05-24T11:02:13.885Z,1480.00
2023-05-24T11:03:13.536Z,1584.00
2023-05-24T11:04:13.469Z,1652.00
2023-05-24T11:05:13.512Z,1732.00
2023-05-24T11:06:13.458Z,1796.00
2023-05-24T11:07:13.445Z,1860.00
2023-05-24T11:08:13.435Z,1936.00
2023-05-24T11:09:13.412Z,2032.00
2023-05-24T11:10:13.404Z,2112.00
2023-05-24T11:12:13.396Z,2080.00
2023-05-24T11:13:13.375Z,2036.00
2023-05-24T11:14:13.367Z,2040.00
2023-05-24T11:15:13.355Z,2108.00
2023-05-24T11:16:13.367Z,2200.00
2023-05-24T11:17:13.320Z,2276.00
2023-05-24T11:18:13.382Z,2304.00
2023-05-24T11:19:13.394Z,2324.00
2023-05-24T11:20:13.326Z,2352.00
2023-05-24T11:21:13.289Z,2348.00
2023-05-24T11:22:13.286Z,2288.00
2023-05-24T11:23:13.260Z,2188.00
2023-05-24T11:24:13.278Z,2128.00
2023-05-24T11:25:13.235Z,2116.00
2023-05-24T11:26:13.236Z,2104.00
2023-05-24T11:27:13.212Z,2116.00
2023-05-24T11:28:13.238Z,2192.00
2023-05-24T11:29:13.194Z,2268.00
2023-05-24T11:30:13.203Z,2304.00
2023-05-24T11:31:13.194Z,2332.00
2023-05-24T11:32:13.282Z,2364.00
2023-05-24T11:33:13.205Z,2416.00
2023-05-24T11:34:13.143Z,2432.00
2023-05-24T11:35:13.140Z,2400.00
2023-05-24T11:36:13.131Z,2308.00
2023-05-24T11:37:15.974Z,2252.00
2023-05-24T11:38:13.109Z,2264.00
2023-05-24T11:39:13.077Z,2344.00
2023-05-24T11:40:13.086Z,2512.00
2023-05-24T11:41:13.055Z,2756.00
2023-05-24T11:42:13.051Z,3036.00
2023-05-24T11:43:15.170Z,3276.00
2023-05-24T11:44:13.038Z,3324.00
2023-05-24T11:45:13.016Z,3172.00
2023-05-24T11:46:13.078Z,3008.00
2023-05-24T11:47:12.990Z,2904.00
2023-05-24T11:48:13.055Z,2976.00
2023-05-24T11:49:12.977Z,3228.00
2023-05-24T11:50:12.967Z,3520.00
2023-05-24T11:51:12.942Z,3596.00
2023-05-24T11:52:12.936Z,3528.00
2023-05-24T11:53:12.923Z,3468.00
2023-05-24T11:54:12.942Z,3320.00
2023-05-24T11:55:14.352Z,3264.00
2023-05-24T11:56:12.892Z,3088.00
2023-05-24T11:57:12.892Z,2904.00
2023-05-24T11:58:12.879Z,2804.00
2023-05-24T11:59:12.867Z,2652.00
2023-05-24T12:00:12.862Z,2544.00
2023-05-24T12:01:12.827Z,2540.00
2023-05-24T12:02:12.844Z,2576.00
2023-05-24T12:03:12.913Z,2620.00
2023-05-24T12:04:13.247Z,2636.00
2023-05-24T12:05:12.781Z,2628.00
2023-05-24T12:06:12.777Z,2544.00
2023-05-24T12:07:12.793Z,2412.00
2023-05-24T12:08:12.891Z,2284.00
2023-05-24T12:09:12.737Z,2240.00
2023-05-24T12:10:12.738Z,2272.00
2023-05-24T12:11:12.716Z,2316.00
2023-05-24T12:12:12.718Z,2504.00
2023-05-24T12:13:12.720Z,2688.00
2023-05-24T12:14:12.728Z,2812.00
2023-05-24T12:15:12.678Z,2812.00
2023-05-24T12:16:12.700Z,2816.00
2023-05-24T12:17:12.663Z,2856.00
2023-05-24T12:18:12.679Z,2932.00
2023-05-24T12:19:23.981Z,2992.00
2023-05-24T12:20:12.652Z,3060.00
2023-05-24T12:21:12.606Z,3144.00
2023-05-24T12:22:12.612Z,3264.00
2023-05-24T12:23:12.586Z,3428.00
2023-05-24T12:24:12.580Z,3540.00
2023-05-24T12:25:12.573Z,3608.00
2023-05-24T12:26:12.559Z,3648.00
2023-05-24T12:27:12.564Z,3740.00
2023-05-24T12:28:12.527Z,3872.00